createdAt,value
2022-08-03T00:02:44.787Z,101460.0
2022-08-03T00:07:44.732Z,101450.0
2022-08-03T00:12:44.731Z,101450.0
2022-08-03T00:17:52.113Z,101450.0
2022-08-03T00:22:44.736Z,101460.0
2022-08-03T00:27:44.746Z,101470.0
2022-08-03T00:32:45.346Z,101460.0
2022-08-03T00:37:44.745Z,101460.0
2022-08-03T00:42:44.748Z,101470.0
2022-08-03T00:47:44.744Z,101460.0
2022-08-03T00:52:44.750Z,101460.0
2022-08-03T00:57:44.753Z,101460.0
2022-08-03T01:02:44.756Z,101460.0
2022-08-03T01:07:44.761Z,101450.0
2022-08-03T01:12:44.759Z,101460.0
2022-08-03T01:17:44.763Z,101450.0
2022-08-03T01:22:44.769Z,101450.0
2022-08-03T01:27:44.765Z,101440.0
2022-08-03T01:32:58.488Z,101440.0
2022-08-03T01:37:44.769Z,101430.0
2022-08-03T01:42:44.782Z,101430.0
2022-08-03T01:47:44.777Z,101450.0
2022-08-03T01:52:44.778Z,101450.0
2022-08-03T01:58:05.336Z,101440.0
2022-08-03T02:02:44.892Z,101440.0
2022-08-03T02:07:44.793Z,101440.0
2022-08-03T02:12:45.971Z,101430.0
2022-08-03T02:17:44.799Z,101430.0
2022-08-03T02:22:44.793Z,101430.0
2022-08-03T02:27:44.802Z,101430.0
2022-08-03T02:32:44.801Z,101430.0
2022-08-03T02:37:49.576Z,101420.0
2022-08-03T02:42:44.802Z,101410.0
2022-08-03T02:47:54.017Z,101410.0
2022-08-03T02:52:44.815Z,101410.0
2022-08-03T02:57:44.817Z,101420.0
2022-08-03T03:02:44.827Z,101420.0
2022-08-03T03:07:51.899Z,101410.0
2022-08-03T03:12:44.822Z,101410.0
2022-08-03T03:17:44.828Z,101420.0
2022-08-03T03:22:45.272Z,101420.0
2022-08-03T03:27:48.827Z,101420.0
2022-08-03T03:32:44.838Z,101410.0
2022-08-03T03:37:44.844Z,101410.0
2022-08-03T03:42:44.843Z,101410.0
2022-08-03T03:47:44.841Z,101410.0
2022-08-03T03:52:44.840Z,101410.0
2022-08-03T03:57:44.848Z,101420.0
2022-08-03T04:02:44.851Z,101420.0
2022-08-03T04:07:44.855Z,101410.0
2022-08-03T04:12:49.994Z,101420.0
2022-08-03T04:17:44.863Z,101410.0
2022-08-03T04:22:44.864Z,101410.0
2022-08-03T04:27:44.867Z,101410.0
2022-08-03T04:32:46.002Z,101410.0
2022-08-03T04:37:44.870Z,101420.0
2022-08-03T04:42:44.885Z,101420.0
2022-08-03T04:47:44.877Z,101420.0
2022-08-03T04:52:44.887Z,101420.0
2022-08-03T04:57:44.908Z,101410.0
2022-08-03T05:02:44.884Z,101420.0
2022-08-03T05:07:44.901Z,101430.0
2022-08-03T05:12:44.898Z,101430.0
2022-08-03T05:17:44.899Z,101430.0
2022-08-03T05:22:44.904Z,101440.0
2022-08-03T05:27:44.914Z,101430.0
2022-08-03T05:32:44.918Z,101440.0
2022-08-03T05:37:54.424Z,101430.0
2022-08-03T05:42:44.918Z,101440.0
2022-08-03T05:47:45.021Z,101450.0
2022-08-03T05:52:44.928Z,101450.0
2022-08-03T05:57:44.924Z,101450.0
2022-08-03T06:02:44.932Z,101450.0
2022-08-03T06:07:44.940Z,101450.0
2022-08-03T06:12:44.945Z,101450.0
2022-08-03T06:17:44.946Z,101460.0
2022-08-03T06:22:51.324Z,101460.0
2022-08-03T06:27:44.958Z,101460.0
2022-08-03T06:32:44.961Z,101450.0
2022-08-03T06:37:44.961Z,101460.0
2022-08-03T06:42:44.964Z,101470.0
2022-08-03T06:47:44.974Z,101460.0
2022-08-03T06:52:44.975Z,101470.0
2022-08-03T06:57:44.982Z,101470.0
2022-08-03T07:02:44.996Z,101470.0
2022-08-03T07:07:45.003Z,101470.0
2022-08-03T07:12:56.055Z,101460.0
2022-08-03T07:17:45.001Z,101480.0
2022-08-03T07:22:45.003Z,101480.0
2022-08-03T07:27:48.849Z,101470.0
2022-08-03T07:32:50.248Z,101480.0
2022-08-03T07:37:54.144Z,101480.0
2022-08-03T07:42:44.928Z,101470.0
2022-08-03T07:47:53.070Z,101470.0
2022-08-03T07:52:44.941Z,101480.0
2022-08-03T07:57:44.937Z,101480.0
2022-08-03T08:02:44.944Z,101470.0
2022-08-03T08:07:51.618Z,101470.0
2022-08-03T08:12:44.960Z,101470.0
2022-08-03T08:17:44.957Z,101470.0
2022-08-03T08:22:44.969Z,101460.0
2022-08-03T08:28:29.098Z,101460.0
2022-08-03T08:32:44.966Z,101470.0
2022-08-03T08:37:51.082Z,101470.0
2022-08-03T08:42:57.902Z,101470.0
2022-08-03T08:47:51.793Z,101470.0
2022-08-03T08:52:44.975Z,101470.0
2022-08-03T08:57:44.986Z,101460.0
2022-08-03T09:02:44.988Z,101470.0
2022-08-03T09:07:44.995Z,101460.0
2022-08-03T09:12:44.998Z,101460.0
2022-08-03T09:17:48.864Z,101460.0
2022-08-03T09:22:45.013Z,101460.0
2022-08-03T09:27:45.011Z,101460.0
2022-08-03T09:32:45.023Z,101450.0
2022-08-03T09:38:08.553Z,101460.0
2022-08-03T09:42:45.023Z,101450.0
2022-08-03T09:47:45.311Z,101460.0
2022-08-03T09:52:52.253Z,101460.0
2022-08-03T09:57:45.039Z,101460.0
2022-08-03T10:02:45.044Z,101460.0
2022-08-03T10:07:46.029Z,101460.0
2022-08-03T10:12:45.057Z,101450.0
2022-08-03T10:17:45.056Z,101450.0
2022-08-03T10:22:45.059Z,101440.0
2022-08-03T10:27:45.059Z,101440.0
2022-08-03T10:32:45.062Z,101440.0
2022-08-03T10:37:56.444Z,101430.0
2022-08-03T10:42:45.069Z,101430.0
2022-08-03T10:47:45.071Z,101430.0
2022-08-03T10:52:48.945Z,101420.0
2022-08-03T10:57:45.109Z,101420.0
2022-08-03T11:02:45.080Z,101420.0
2022-08-03T11:07:45.085Z,101400.0
2022-08-03T11:12:45.088Z,101400.0
2022-08-03T11:17:46.691Z,101400.0
2022-08-03T11:22:45.112Z,101400.0
2022-08-03T11:27:45.104Z,101390.0
2022-08-03T11:32:46.679Z,101380.0
2022-08-03T11:38:01.502Z,101390.0
2022-08-03T11:42:45.133Z,101390.0
2022-08-03T11:47:50.997Z,101390.0
2022-08-03T11:52:45.119Z,101390.0
2022-08-03T11:59:01.153Z,101390.0
2022-08-03T12:02:45.166Z,101390.0
2022-08-03T12:08:04.949Z,101390.0
2022-08-03T12:12:46.670Z,101400.0
2022-08-03T12:17:45.139Z,101400.0
2022-08-03T12:22:45.140Z,101400.0
2022-08-03T12:27:45.144Z,101410.0
2022-08-03T12:32:45.147Z,101390.0
2022-08-03T12:37:45.162Z,101390.0
2022-08-03T12:42:45.156Z,101390.0
2022-08-03T12:47:45.162Z,101390.0
2022-08-03T12:52:45.169Z,101390.0
2022-08-03T12:57:45.169Z,101380.0
2022-08-03T13:02:46.499Z,101380.0
2022-08-03T13:07:45.669Z,101380.0
2022-08-03T13:12:45.179Z,101380.0
2022-08-03T13:17:45.179Z,101370.0
2022-08-03T13:22:45.201Z,101360.0
2022-08-03T13:28:03.219Z,101370.0
2022-08-03T13:32:45.194Z,101360.0
2022-08-03T13:37:47.799Z,101360.0
2022-08-03T13:42:45.207Z,101360.0
2022-08-03T13:47:45.207Z,101360.0
2022-08-03T13:52:45.205Z,101350.0
2022-08-03T13:58:03.860Z,101360.0
2022-08-03T14:02:45.297Z,101350.0
2022-08-03T14:07:45.222Z,101350.0
2022-08-03T14:12:45.235Z,101350.0
2022-08-03T14:17:49.973Z,101340.0
2022-08-03T14:22:45.231Z,101340.0
2022-08-03T14:27:45.240Z,101340.0
2022-08-03T14:32:45.242Z,101330.0
2022-08-03T14:37:45.244Z,101320.0
2022-08-03T14:42:45.243Z,101320.0
2022-08-03T14:50:34.938Z,101300.0
2022-08-03T14:52:45.251Z,101300.0
2022-08-03T14:57:45.257Z,101300.0
2022-08-03T15:02:45.340Z,101300.0
2022-08-03T15:07:45.262Z,101300.0
2022-08-03T15:12:45.264Z,101280.0
2022-08-03T15:18:00.055Z,101290.0
2022-08-03T15:22:45.271Z,101290.0
2022-08-03T15:28:03.460Z,101280.0
2022-08-03T15:32:45.293Z,101280.0
2022-08-03T15:37:45.273Z,101280.0
2022-08-03T15:42:45.286Z,101280.0
2022-08-03T15:47:45.288Z,101290.0
2022-08-03T15:52:45.280Z,101270.0
2022-08-03T15:59:09.157Z,101270.0
2022-08-03T16:02:45.294Z,101270.0
2022-08-03T16:08:02.630Z,101260.0
2022-08-03T16:12:45.294Z,101250.0
2022-08-03T16:17:45.293Z,101250.0
2022-08-03T16:22:45.293Z,101240.0
2022-08-03T16:27:58.326Z,101250.0
2022-08-03T16:32:45.299Z,101240.0
2022-08-03T16:37:54.636Z,101250.0
2022-08-03T16:42:45.304Z,101250.0
2022-08-03T16:47:45.312Z,101240.0
2022-08-03T16:52:46.987Z,101240.0
2022-08-03T16:57:58.835Z,101230.0
2022-08-03T17:02:48.213Z,101230.0
2022-08-03T17:07:50.509Z,101230.0
2022-08-03T17:12:45.340Z,101230.0
2022-08-03T17:17:56.245Z,101230.0
2022-08-03T17:22:45.337Z,101240.0
2022-08-03T17:28:48.843Z,101240.0
2022-08-03T17:32:56.907Z,101230.0
2022-08-03T17:37:57.606Z,101230.0
2022-08-03T17:42:45.343Z,101230.0
2022-08-03T17:47:45.340Z,101230.0
2022-08-03T17:52:48.463Z,101240.0
2022-08-03T17:58:02.230Z,101240.0
2022-08-03T18:02:47.678Z,101230.0
2022-08-03T18:07:48.588Z,101240.0
2022-08-03T18:12:45.353Z,101240.0
2022-08-03T18:22:45.349Z,101240.0
2022-08-03T18:27:45.723Z,101250.0
2022-08-03T18:33:00.447Z,101240.0
2022-08-03T18:37:51.646Z,101250.0
2022-08-03T18:42:53.006Z,101240.0
2022-08-03T18:47:52.469Z,101230.0
2022-08-03T18:52:45.683Z,101240.0
2022-08-03T18:57:46.388Z,101240.0
2022-08-03T19:02:49.072Z,101240.0
2022-08-03T19:07:45.359Z,101240.0
2022-08-03T19:12:45.574Z,101250.0
2022-08-03T19:17:50.349Z,101250.0
2022-08-03T19:22:45.716Z,101250.0
2022-08-03T19:27:45.358Z,101260.0
2022-08-03T19:32:48.217Z,101270.0
2022-08-03T19:37:45.358Z,101260.0
2022-08-03T19:42:45.375Z,101270.0
2022-08-03T19:47:45.362Z,101280.0
2022-08-03T19:52:45.360Z,101290.0
2022-08-03T19:57:45.723Z,101280.0
2022-08-03T20:02:45.364Z,101280.0
2022-08-03T20:07:48.324Z,101280.0
2022-08-03T20:12:45.366Z,101280.0
2022-08-03T20:17:55.525Z,101280.0
2022-08-03T20:22:45.499Z,101280.0
2022-08-03T20:28:07.883Z,101280.0
2022-08-03T20:32:45.387Z,101280.0
2022-08-03T20:37:45.394Z,101280.0
2022-08-03T20:42:45.379Z,101270.0
2022-08-03T20:47:50.513Z,101280.0
2022-08-03T20:52:49.642Z,101280.0
2022-08-03T20:57:49.123Z,101280.0
2022-08-03T21:02:45.389Z,101280.0
2022-08-03T21:12:45.488Z,101280.0
2022-08-03T21:13:04.599Z,101230.0
2022-08-03T21:13:13.375Z,101280.0
2022-08-03T21:17:45.743Z,101280.0
2022-08-03T21:22:45.501Z,101280.0
2022-08-03T21:27:45.509Z,101270.0
2022-08-03T21:32:45.527Z,101270.0
2022-08-03T21:37:45.509Z,101260.0
2022-08-03T21:42:45.534Z,101260.0
2022-08-03T21:47:45.511Z,101270.0
2022-08-03T21:52:45.512Z,101260.0
2022-08-03T21:57:45.514Z,101250.0
2022-08-03T22:02:45.518Z,101250.0
2022-08-03T22:07:45.527Z,101250.0
2022-08-03T22:12:45.525Z,101250.0
2022-08-03T22:17:54.897Z,101240.0
2022-08-03T22:22:53.618Z,101240.0
2022-08-03T22:27:45.528Z,101240.0
2022-08-03T22:32:45.533Z,101240.0
2022-08-03T22:37:45.536Z,101240.0
2022-08-03T22:42:45.534Z,101240.0
2022-08-03T22:47:45.548Z,101240.0
2022-08-03T22:52:45.554Z,101240.0
2022-08-03T22:57:45.547Z,101230.0
2022-08-03T23:02:45.549Z,101220.0
2022-08-03T23:07:45.554Z,101230.0
2022-08-03T23:12:45.554Z,101230.0
2022-08-03T23:17:57.837Z,101230.0
2022-08-03T23:22:45.557Z,101230.0
2022-08-03T23:27:45.561Z,101230.0
2022-08-03T23:32:45.569Z,101230.0
2022-08-03T23:38:10.813Z,101220.0
2022-08-03T23:42:45.579Z,101230.0
2022-08-03T23:47:46.657Z,101230.0
2022-08-03T23:52:45.572Z,101220.0
2022-08-03T23:57:45.572Z,101220.0
